Time;durP1;ratioP1;P1;durP2;ratioP2;P2;SDS_P1;SDS_P2;PMS_P1;PMS_P2;Temp;Humidity;BMP_temperature;BMP_pressure;BME280_temperature;BME280_humidity;BME280_pressure;Samples;Min_cycle;Max_cycle;Signal;HPM_P1;HPM_P2
2022/09/25 00:01:31;;;;;;;2.97;1.95;;;8.90;99.90;;;;;;5031855;28;20124;-63
2022/09/25 00:03:57;;;;;;;5.00;2.20;;;8.80;99.90;;;;;;5022776;28;20073;-63
2022/09/25 00:06:24;;;;;;;6.80;1.92;;;8.90;99.90;;;;;;5013461;28;20129;-63
2022/09/25 00:08:51;;;;;;;5.93;2.65;;;9.00;99.90;;;;;;5013436;28;20042;-63
2022/09/25 00:11:29;;;;;;;3.40;2.80;;;8.90;99.90;;;;;;5013305;28;20049;-63
2022/09/25 00:13:56;;;;;;;5.20;3.33;;;8.90;99.90;;;;;;5012942;28;20536;-63
2022/09/25 00:16:24;;;;;;;7.82;2.85;;;8.90;99.90;;;;;;5012319;28;20451;-63
2022/09/25 00:21:35;;;;;;;5.43;2.58;;;;;;;;;;5012925;28;20451;-62
2022/09/25 00:24:03;;;;;;;3.90;2.33;;;8.80;99.90;;;;;;5012079;28;20511;-63
2022/09/25 00:26:31;;;;;;;2.78;2.00;;;8.80;99.90;;;;;;5013469;28;20061;-63
2022/09/25 00:29:00;;;;;;;6.57;2.20;;;8.70;99.90;;;;;;5032264;28;20365;-63
2022/09/25 00:31:26;;;;;;;3.70;2.03;;;8.70;99.90;;;;;;5032791;28;20488;-63
2022/09/25 00:33:55;;;;;;;3.40;1.83;;;8.70;99.90;;;;;;5015087;28;20480;-63
2022/09/25 00:36:20;;;;;;;3.60;2.00;;;8.50;99.90;;;;;;5013004;28;20511;-62
2022/09/25 00:38:47;;;;;;;2.95;1.73;;;8.50;99.90;;;;;;5012827;28;20038;-62
2022/09/25 00:41:15;;;;;;;7.05;2.17;;;8.60;99.90;;;;;;5012070;28;20069;-63
2022/09/25 00:43:47;;;;;;;3.15;2.10;;;8.60;99.90;;;;;;5025708;28;20513;-63
2022/09/25 00:46:32;;;;;;;2.80;2.47;;;8.50;99.90;;;;;;5026707;28;20049;-63
2022/09/25 00:49:08;;;;;;;5.40;2.42;;;8.50;99.90;;;;;;5017373;28;20060;-63
2022/09/25 00:51:51;;;;;;;4.22;2.28;;;8.50;99.90;;;;;;5015986;28;20398;-63
2022/09/25 00:54:26;;;;;;;6.10;2.50;;;8.10;99.90;;;;;;5031056;28;20045;-63
2022/09/25 00:56:53;;;;;;;4.18;2.53;;;8.40;99.90;;;;;;5017480;28;20038;-63
2022/09/25 00:59:23;;;;;;;3.08;2.22;;;8.40;99.90;;;;;;5017031;28;20042;-62
2022/09/25 01:01:49;;;;;;;7.53;2.90;;;8.50;99.90;;;;;;5025219;28;20419;-63
2022/09/25 01:04:15;;;;;;;5.72;2.50;;;8.60;99.90;;;;;;5025223;28;20045;-63
2022/09/25 01:06:41;;;;;;;3.65;2.17;;;8.50;99.90;;;;;;5016508;28;20041;-63
2022/09/25 01:09:07;;;;;;;7.05;2.50;;;8.60;99.90;;;;;;5016976;28;20057;-63
2022/09/25 01:11:33;;;;;;;3.40;2.58;;;8.60;99.90;;;;;;5016495;28;20038;-63
2022/09/25 01:14:01;;;;;;;3.50;2.25;;;8.50;99.90;;;;;;5014985;28;20049;-63
2022/09/25 01:17:08;;;;;;;3.08;2.25;;;8.60;99.90;;;;;;5015176;28;20057;-62
2022/09/25 01:20:01;;;;;;;5.60;2.13;;;8.40;99.90;;;;;;5016545;28;20042;-63
2022/09/25 01:22:55;;;;;;;4.85;2.22;;;8.70;99.90;;;;;;5022966;28;20120;-63
2022/09/25 01:25:47;;;;;;;3.08;1.98;;;8.50;99.90;;;;;;5034756;28;20096;-63
2022/09/25 01:28:28;;;;;;;4.65;2.33;;;8.60;99.90;;;;;;5036297;28;20087;-63
2022/09/25 01:31:00;;;;;;;5.18;3.15;;;8.40;99.90;;;;;;5015047;28;20397;-63
2022/09/25 01:33:51;;;;;;;4.18;2.90;;;8.60;99.90;;;;;;5030349;28;20045;-62
2022/09/25 01:36:45;;;;;;;4.47;2.45;;;8.60;99.90;;;;;;5026715;28;20041;-63
2022/09/25 01:39:20;;;;;;;4.95;2.67;;;8.60;99.90;;;;;;5016036;28;20038;-63
2022/09/25 01:41:57;;;;;;;4.63;2.57;;;8.50;99.90;;;;;;5014835;28;20092;-63
2022/09/25 01:44:29;;;;;;;4.90;1.95;;;8.50;99.90;;;;;;5021283;28;20366;-63
2022/09/25 01:46:59;;;;;;;6.05;1.90;;;;;;;;;;5022946;28;20108;-62
2022/09/25 01:49:35;;;;;;;3.20;2.15;;;8.30;99.90;;;;;;5015961;28;20065;-63
2022/09/25 01:52:03;;;;;;;5.20;2.53;;;8.40;99.90;;;;;;5014590;28;20125;-62
2022/09/25 01:54:36;;;;;;;7.28;2.53;;;8.30;99.90;;;;;;5015868;28;20099;-63
2022/09/25 01:57:11;;;;;;;5.47;2.13;;;8.30;99.90;;;;;;5015932;28;20042;-63
2022/09/25 01:59:54;;;;;;;2.97;2.40;;;8.20;99.90;;;;;;5033867;28;20037;-62
2022/09/25 02:02:24;;;;;;;3.53;1.80;;;8.10;99.90;;;;;;5035350;28;20089;-63
2022/09/25 02:05:14;;;;;;;4.35;2.30;;;8.10;99.90;;;;;;5019224;28;20046;-63
2022/09/25 02:07:46;;;;;;;2.65;2.33;;;8.10;99.90;;;;;;5015682;28;20049;-62
2022/09/25 02:10:18;;;;;;;4.07;2.58;;;8.20;99.90;;;;;;5015707;28;20056;-63
2022/09/25 02:12:46;;;;;;;3.22;1.80;;;;;;;;;;5030692;28;20128;-62
2022/09/25 02:15:29;;;;;;;7.38;2.42;;;8.20;99.90;;;;;;5018865;28;20087;-63
2022/09/25 02:21:19;;;;;;;7.82;2.13;;;8.40;99.90;;;;;;5015421;28;20497;-62
2022/09/25 02:23:51;;;;;;;8.43;2.35;;;8.50;99.90;;;;;;5032068;28;20415;-63
2022/09/25 02:26:25;;;;;;;3.10;2.33;;;8.40;99.90;;;;;;5022739;28;20046;-62
2022/09/25 02:28:52;;;;;;;5.47;3.15;;;8.20;99.90;;;;;;5015017;28;20507;-63
2022/09/25 02:31:28;;;;;;;5.57;2.15;;;8.20;99.90;;;;;;5013961;28;20072;-63
2022/09/25 02:33:54;;;;;;;5.13;2.15;;;8.00;99.90;;;;;;5014861;28;20038;-62
2022/09/25 02:36:22;;;;;;;4.38;2.30;;;8.10;99.90;;;;;;5014110;28;20034;-63
2022/09/25 02:38:50;;;;;;;4.78;2.20;;;8.20;99.90;;;;;;5013618;28;20377;-63
2022/09/25 02:41:48;;;;;;;2.95;1.73;;;8.20;99.90;;;;;;4997456;28;20041;-62
2022/09/25 02:44:39;;;;;;;4.15;2.20;;;8.20;99.90;;;;;;5004828;28;20059;-63
2022/09/25 02:47:24;;;;;;;3.75;2.22;;;8.10;99.90;;;;;;5019339;28;20061;-62
2022/09/25 02:50:12;;;;;;;6.90;2.17;;;8.20;99.90;;;;;;5013587;28;20060;-63
2022/09/25 02:53:04;;;;;;;3.42;2.47;;;8.20;99.90;;;;;;5014535;28;20076;-63
2022/09/25 02:55:46;;;;;;;4.93;2.25;;;8.50;99.90;;;;;;5019421;28;20037;-62
2022/09/25 02:58:26;;;;;;;5.65;2.47;;;8.40;99.90;;;;;;5027264;28;20112;-63
2022/09/25 03:00:54;;;;;;;4.72;2.13;;;8.40;99.90;;;;;;5031108;28;20034;-63
2022/09/25 03:03:24;;;;;;;4.05;2.67;;;8.40;99.90;;;;;;5034146;28;20049;-63
2022/09/25 03:05:53;;;;;;;5.35;2.53;;;8.50;99.90;;;;;;5034280;28;20068;-63
2022/09/25 03:08:40;;;;;;;7.18;2.25;;;8.40;99.90;;;;;;5033782;28;20403;-63
2022/09/25 03:11:07;;;;;;;8.20;2.45;;;8.50;99.90;;;;;;5034361;28;20049;-63
2022/09/25 03:13:34;;;;;;;4.30;2.33;;;8.40;99.90;;;;;;5033530;28;20059;-63
2022/09/25 03:16:25;;;;;;;7.10;2.47;;;8.20;99.90;;;;;;5034385;28;20090;-63
2022/09/25 03:18:51;;;;;;;9.32;3.00;;;8.30;99.90;;;;;;4995419;28;20053;-63
2022/09/25 03:21:17;;;;;;;5.82;2.42;;;8.40;99.90;;;;;;5032703;28;20029;-63
2022/09/25 03:23:42;;;;;;;3.05;2.20;;;8.50;99.90;;;;;;5032530;28;20045;-62
2022/09/25 03:26:08;;;;;;;3.63;2.05;;;8.40;99.90;;;;;;5032453;28;20052;-63
2022/09/25 03:28:34;;;;;;;3.15;2.17;;;8.20;99.90;;;;;;5034026;28;20533;-63
2022/09/25 03:31:05;;;;;;;2.97;2.17;;;8.20;99.90;;;;;;5032305;28;20128;-63
2022/09/25 03:33:36;;;;;;;3.90;1.58;;;8.10;99.90;;;;;;5033526;28;20689;-63
2022/09/25 03:36:10;;;;;;;5.32;1.63;;;8.10;99.90;;;;;;5032424;28;20042;-63
2022/09/25 03:38:36;;;;;;;2.07;1.73;;;8.00;99.90;;;;;;5032405;28;20077;-62
2022/09/25 03:41:03;;;;;;;4.35;1.55;;;8.00;99.90;;;;;;5033577;28;20438;-63
2022/09/25 03:43:31;;;;;;;3.25;1.98;;;7.90;99.90;;;;;;5032156;28;20492;-62
2022/09/25 03:45:57;;;;;;;5.05;2.20;;;7.90;99.90;;;;;;5033620;28;20056;-63
2022/09/25 03:48:22;;;;;;;2.83;2.40;;;7.80;99.90;;;;;;5032263;28;20049;-63
2022/09/25 03:50:49;;;;;;;5.30;2.35;;;;;;;;;;5033760;28;20069;-63
2022/09/25 03:53:16;;;;;;;4.97;2.45;;;;;;;;;;5033329;28;20084;-63
2022/09/25 03:55:43;;;;;;;3.60;2.40;;;7.60;99.90;;;;;;5033631;28;20059;-63
2022/09/25 03:58:09;;;;;;;3.92;2.47;;;7.70;99.90;;;;;;5032067;28;20030;-63
2022/09/25 04:00:35;;;;;;;1.90;1.25;;;7.60;99.90;;;;;;5033369;28;20451;-63
2022/09/25 04:03:00;;;;;;;3.22;1.83;;;7.70;99.90;;;;;;5031792;28;20455;-63
2022/09/25 04:05:26;;;;;;;3.22;1.98;;;7.80;99.90;;;;;;5032405;28;20041;-63
2022/09/25 04:07:52;;;;;;;5.60;2.85;;;;;;;;;;5031842;28;20156;-63
2022/09/25 04:10:17;;;;;;;3.45;2.17;;;7.80;99.90;;;;;;5033289;28;20033;-63
2022/09/25 04:12:43;;;;;;;4.95;1.92;;;7.80;99.90;;;;;;5031801;28;20045;-63
2022/09/25 04:15:09;;;;;;;2.00;1.77;;;7.90;99.90;;;;;;5031573;28;20156;-63
2022/09/25 04:17:34;;;;;;;4.95;1.42;;;7.70;99.90;;;;;;5033054;28;20038;-63
2022/09/25 04:20:00;;;;;;;2.85;1.70;;;7.80;99.90;;;;;;5032066;28;20038;-62
2022/09/25 04:22:26;;;;;;;4.18;1.60;;;;;;;;;;5031571;28;20042;-63
2022/09/25 04:24:53;;;;;;;2.05;1.35;;;7.90;99.90;;;;;;5032969;28;20046;-63
2022/09/25 04:27:22;;;;;;;4.40;2.28;;;7.80;99.90;;;;;;5032806;28;20112;-63
2022/09/25 04:29:48;;;;;;;3.67;2.40;;;8.10;99.90;;;;;;5032963;28;20091;-62
2022/09/25 04:34:59;;;;;;;7.05;2.13;;;;;;;;;;5032664;28;20483;-63
2022/09/25 04:37:26;;;;;;;3.97;2.15;;;8.20;99.90;;;;;;5031412;28;20041;-63
2022/09/25 04:39:53;;;;;;;5.82;2.17;;;8.20;99.90;;;;;;5031498;28;20041;-62
2022/09/25 04:42:23;;;;;;;5.15;2.33;;;8.30;99.90;;;;;;5032876;28;20166;-62
2022/09/25 04:44:53;;;;;;;4.60;2.42;;;8.30;99.90;;;;;;5031782;28;20403;-63
2022/09/25 04:47:20;;;;;;;3.80;2.90;;;8.20;99.90;;;;;;5032760;28;20067;-63
2022/09/25 04:49:46;;;;;;;7.03;2.53;;;8.30;99.90;;;;;;5031616;28;20053;-63
2022/09/25 04:52:16;;;;;;;7.93;2.20;;;8.20;99.90;;;;;;5031239;28;20050;-62
2022/09/25 04:54:42;;;;;;;3.85;2.20;;;8.30;99.90;;;;;;5031419;28;20053;-63
2022/09/25 04:57:10;;;;;;;5.30;2.38;;;8.30;99.90;;;;;;5031646;28;20416;-63
2022/09/25 04:59:36;;;;;;;3.58;1.90;;;8.20;99.90;;;;;;5031322;28;20109;-63
2022/09/25 05:02:02;;;;;;;7.93;2.38;;;8.40;99.90;;;;;;5032786;28;20051;-63
2022/09/25 05:04:27;;;;;;;5.28;2.15;;;8.30;99.90;;;;;;5031097;28;20411;-63
2022/09/25 05:06:53;;;;;;;5.60;2.42;;;8.30;99.90;;;;;;5032378;28;20033;-62
2022/09/25 05:09:18;;;;;;;5.70;2.70;;;8.40;99.90;;;;;;5031198;28;20049;-63
2022/09/25 05:11:45;;;;;;;6.45;2.22;;;8.40;99.90;;;;;;5032451;28;20044;-63
2022/09/25 05:14:11;;;;;;;5.15;2.60;;;8.40;99.90;;;;;;5032321;28;20053;-63
2022/09/25 05:16:37;;;;;;;5.60;2.58;;;8.30;99.90;;;;;;5031382;28;20099;-63
2022/09/25 05:19:02;;;;;;;3.22;1.75;;;8.30;99.90;;;;;;5032261;28;20487;-63
2022/09/25 05:21:28;;;;;;;3.53;1.67;;;8.20;99.90;;;;;;5032584;28;20029;-62
2022/09/25 05:23:55;;;;;;;5.75;1.90;;;8.30;99.90;;;;;;5031133;28;20491;-63
2022/09/25 05:26:22;;;;;;;2.47;1.80;;;8.20;99.90;;;;;;5032639;28;20118;-63
2022/09/25 05:28:49;;;;;;;3.35;2.08;;;8.30;99.90;;;;;;5030967;28;20069;-62
2022/09/25 05:31:15;;;;;;;5.22;2.15;;;8.20;99.90;;;;;;5031357;28;20041;-63
2022/09/25 05:33:42;;;;;;;4.57;1.98;;;8.10;99.90;;;;;;5035668;28;20381;-62
2022/09/25 05:36:08;;;;;;;3.53;1.95;;;8.30;99.90;;;;;;5035932;28;20048;-63
2022/09/25 05:38:36;;;;;;;3.28;1.70;;;8.30;99.90;;;;;;5034471;28;20120;-63
2022/09/25 05:41:04;;;;;;;3.15;1.80;;;8.40;99.90;;;;;;5034883;28;20041;-62
2022/09/25 05:43:30;;;;;;;4.47;1.80;;;8.50;99.90;;;;;;5034951;28;20108;-63
2022/09/25 05:45:57;;;;;;;3.25;2.10;;;8.60;99.90;;;;;;5034487;28;20188;-62
2022/09/25 05:48:23;;;;;;;3.10;1.70;;;8.60;99.90;;;;;;5034451;28;20045;-62
2022/09/25 05:50:56;;;;;;;3.92;2.85;;;8.70;99.90;;;;;;5034345;28;20045;-63
2022/09/25 05:53:22;;;;;;;3.30;2.45;;;9.00;99.90;;;;;;5034281;28;20537;-63
2022/09/25 05:55:57;;;;;;;2.78;2.47;;;9.00;99.90;;;;;;5034217;28;20129;-63
2022/09/25 05:58:23;;;;;;;3.25;2.30;;;9.20;99.90;;;;;;5035863;28;20037;-63
2022/09/25 06:00:50;;;;;;;3.83;1.98;;;9.30;99.90;;;;;;5035616;28;20084;-63
2022/09/25 06:03:16;;;;;;;5.93;2.67;;;9.30;99.90;;;;;;5034200;28;20048;-62
2022/09/25 06:05:45;;;;;;;3.30;2.30;;;9.50;99.90;;;;;;5035594;28;20144;-63
2022/09/25 06:08:11;;;;;;;4.22;2.35;;;9.50;99.90;;;;;;5034289;28;20049;-63
2022/09/25 06:10:37;;;;;;;3.13;2.10;;;9.60;99.90;;;;;;5034700;28;20045;-63
2022/09/25 06:13:04;;;;;;;5.97;2.50;;;9.70;99.90;;;;;;5033734;28;20037;-62
2022/09/25 06:15:40;;;;;;;4.15;2.10;;;9.70;99.90;;;;;;5035032;28;20140;-62
2022/09/25 06:18:07;;;;;;;6.40;2.80;;;9.90;99.90;;;;;;5034121;28;20404;-63
2022/09/25 06:20:33;;;;;;;6.38;2.35;;;10.10;99.90;;;;;;5033792;28;20042;-63
2022/09/25 06:23:02;;;;;;;5.55;1.90;;;10.00;99.90;;;;;;5034065;28;20060;-63
2022/09/25 06:25:31;;;;;;;5.80;1.85;;;10.20;99.90;;;;;;5035262;28;20037;-63
2022/09/25 06:27:59;;;;;;;4.53;2.13;;;10.10;99.90;;;;;;5034040;28;20491;-62
2022/09/25 06:30:29;;;;;;;5.65;2.10;;;10.30;99.90;;;;;;5035141;28;20049;-63
2022/09/25 06:32:56;;;;;;;2.22;1.60;;;10.40;99.90;;;;;;5033962;28;20049;-63
2022/09/25 06:35:22;;;;;;;7.13;2.92;;;10.40;99.90;;;;;;5034703;28;20060;-63
2022/09/25 06:37:47;;;;;;;5.90;1.60;;;10.50;99.90;;;;;;5034961;28;20041;-63
2022/09/25 06:40:13;;;;;;;5.05;1.80;;;10.60;99.90;;;;;;5033811;28;20561;-63
2022/09/25 06:42:38;;;;;;;5.15;1.80;;;10.60;99.90;;;;;;5032727;28;20049;-63
2022/09/25 06:45:04;;;;;;;3.90;1.80;;;10.70;99.90;;;;;;5032777;28;20045;-63
2022/09/25 06:47:30;;;;;;;5.35;1.60;;;10.60;99.90;;;;;;5033360;28;20406;-63
2022/09/25 06:49:55;;;;;;;5.57;2.15;;;10.90;99.90;;;;;;5033416;28;20159;-63
2022/09/25 06:52:21;;;;;;;2.33;2.03;;;10.90;99.90;;;;;;5034479;28;20041;-63
2022/09/25 06:54:46;;;;;;;5.18;2.00;;;10.90;99.90;;;;;;5034731;28;20475;-63
2022/09/25 06:57:12;;;;;;;5.85;2.83;;;11.00;99.90;;;;;;5033074;28;20045;-63
2022/09/25 06:59:38;;;;;;;9.93;1.95;;;11.00;99.90;;;;;;5034029;28;20466;-63
2022/09/25 07:04:50;;;;;;;11.52;5.38;;;11.30;99.90;;;;;;5022296;28;20053;-64
2022/09/25 07:07:19;;;;;;;6.03;2.22;;;11.20;99.90;;;;;;5030853;28;20511;-64
2022/09/25 07:09:49;;;;;;;4.90;1.83;;;11.50;99.90;;;;;;5032733;28;20547;-64
2022/09/25 07:12:17;;;;;;;4.88;2.08;;;11.40;99.90;;;;;;5017000;28;20041;-65
2022/09/25 07:14:45;;;;;;;10.15;2.95;;;11.40;99.90;;;;;;5015992;28;20125;-64
2022/09/25 07:17:12;;;;;;;4.70;2.00;;;11.70;99.90;;;;;;5030309;28;20108;-64
2022/09/25 07:19:37;;;;;;;5.90;1.52;;;11.80;99.90;;;;;;5030887;28;20053;-64
2022/09/25 07:22:03;;;;;;;3.70;1.65;;;11.70;99.90;;;;;;5025528;28;20033;-66
2022/09/25 07:24:29;;;;;;;4.07;1.67;;;11.90;99.90;;;;;;5033817;28;20049;-66
2022/09/25 07:26:55;;;;;;;6.25;1.77;;;12.20;99.90;;;;;;5033955;28;20564;-65
2022/09/25 07:29:20;;;;;;;4.75;1.83;;;12.60;99.90;;;;;;5033040;28;20037;-65
2022/09/25 07:31:46;;;;;;;4.88;1.85;;;13.60;99.90;;;;;;5031049;28;20045;-66
2022/09/25 07:34:13;;;;;;;6.45;1.77;;;13.70;99.90;;;;;;5032075;28;20040;-65
2022/09/25 07:36:41;;;;;;;4.85;1.40;;;14.30;99.90;;;;;;5033502;28;20048;-65
2022/09/25 07:39:07;;;;;;;5.80;1.40;;;14.40;99.90;;;;;;5033635;28;20047;-64
2022/09/25 07:41:33;;;;;;;4.13;1.30;;;14.30;99.90;;;;;;5032212;28;20547;-65
2022/09/25 07:43:59;;;;;;;4.95;1.38;;;14.10;99.90;;;;;;5033412;28;20041;-65
2022/09/25 07:46:26;;;;;;;6.53;1.40;;;14.20;99.90;;;;;;5015554;28;20503;-65
2022/09/25 07:48:52;;;;;;;4.20;1.30;;;14.20;99.90;;;;;;5033376;28;20045;-64
2022/09/25 07:51:20;;;;;;;3.75;1.23;;;;;;;;;;5033478;28;20034;-65
2022/09/25 07:53:46;;;;;;;3.38;1.30;;;13.90;99.90;;;;;;5033361;28;20046;-65
2022/09/25 07:56:12;;;;;;;3.38;1.33;;;14.00;99.90;;;;;;5032773;28;20038;-65
2022/09/25 07:58:38;;;;;;;7.70;1.38;;;14.70;99.90;;;;;;5033352;28;20033;-65
2022/09/25 08:01:06;;;;;;;4.30;1.10;;;14.80;99.90;;;;;;5031735;28;20522;-65
2022/09/25 08:03:32;;;;;;;5.25;1.30;;;14.60;99.90;;;;;;5017859;28;20561;-65
2022/09/25 08:06:05;;;;;;;4.40;1.30;;;14.60;99.90;;;;;;5029969;28;20037;-65
2022/09/25 08:08:33;;;;;;;4.80;1.40;;;14.90;99.90;;;;;;5031891;28;20056;-65
2022/09/25 08:11:05;;;;;;;6.90;1.40;;;15.00;99.90;;;;;;5032087;28;20044;-65
2022/09/25 08:13:32;;;;;;;5.22;1.15;;;15.30;99.90;;;;;;5032926;28;20043;-65
2022/09/25 08:15:58;;;;;;;2.70;0.90;;;15.30;99.90;;;;;;5033062;28;20045;-65
2022/09/25 08:18:23;;;;;;;4.70;1.20;;;15.00;99.90;;;;;;5033107;28;20041;-65
2022/09/25 08:20:49;;;;;;;5.13;1.15;;;15.00;99.90;;;;;;5031472;28;20048;-65
2022/09/25 08:23:15;;;;;;;5.35;0.95;;;15.20;99.90;;;;;;5031263;28;20038;-65
2022/09/25 08:25:40;;;;;;;6.90;1.30;;;14.90;99.90;;;;;;5032889;28;20041;-65
2022/09/25 08:28:06;;;;;;;4.93;0.88;;;14.90;99.90;;;;;;5032546;28;20045;-65
2022/09/25 08:30:31;;;;;;;4.53;1.60;;;14.90;99.90;;;;;;5032566;28;20048;-65
2022/09/25 08:32:57;;;;;;;2.72;0.85;;;15.00;99.90;;;;;;5032644;28;20037;-65
2022/09/25 08:35:23;;;;;;;2.03;0.70;;;14.90;99.90;;;;;;5032487;28;20060;-65
2022/09/25 08:37:48;;;;;;;6.60;1.10;;;16.50;99.90;;;;;;5032689;28;20045;-65
2022/09/25 08:40:19;;;;;;;5.30;1.20;;;15.00;99.90;;;;;;5031492;28;20041;-65
2022/09/25 08:42:48;;;;;;;6.38;1.15;;;15.00;99.90;;;;;;5019853;28;20044;-65
2022/09/25 08:51:03;;;;;;;10.43;2.67;;;15.00;99.90;;;;;;5030837;28;20049;-65
2022/09/25 08:53:28;;;;;;;6.13;0.90;;;15.10;99.90;;;;;;5031230;28;20050;-65
2022/09/25 08:58:41;;;;;;;15.98;2.25;;;15.90;99.90;;;;;;5031313;28;20124;-66
2022/09/25 09:01:31;;;;;;;6.18;1.10;;;15.90;99.90;;;;;;5032512;28;20033;-66
2022/09/25 09:04:04;;;;;;;5.43;1.10;;;17.80;99.90;;;;;;4980823;28;20050;-66
2022/09/25 09:06:31;;;;;;;5.10;0.70;;;20.10;99.90;;;;;;5033332;28;20120;-66
2022/09/25 09:09:12;;;;;;;5.03;0.70;;;21.80;99.90;;;;;;5036712;28;20049;-66
2022/09/25 09:11:59;;;;;;;4.75;0.70;;;21.10;99.90;;;;;;5035124;28;20056;-66
2022/09/25 09:14:29;;;;;;;4.97;0.70;;;21.30;99.90;;;;;;5034015;28;20054;-66
2022/09/25 09:17:02;;;;;;;3.58;0.60;;;20.20;99.90;;;;;;5036201;28;20034;-66
2022/09/25 09:19:28;;;;;;;3.15;0.70;;;19.50;99.90;;;;;;5036232;28;20040;-66
2022/09/25 09:22:05;;;;;;;6.43;0.88;;;18.70;99.90;;;;;;5034770;28;20419;-66
2022/09/25 09:25:13;;;;;;;4.63;0.52;;;18.30;99.90;;;;;;5036483;28;20053;-65
2022/09/25 09:28:16;;;;;;;4.57;0.85;;;17.80;99.90;;;;;;5023283;28;20532;-66
2022/09/25 09:31:09;;;;;;;2.17;0.57;;;16.80;99.90;;;;;;5034671;28;20136;-65
2022/09/25 09:33:56;;;;;;;1.23;0.50;;;16.30;99.90;;;;;;5034653;28;20117;-65
2022/09/25 09:36:47;;;;;;;0.75;0.43;;;16.20;99.90;;;;;;5034996;28;20392;-66
2022/09/25 09:39:38;;;;;;;2.88;0.60;;;15.80;99.90;;;;;;5034375;28;20037;-66
2022/09/25 09:42:32;;;;;;;1.30;0.50;;;14.90;99.90;;;;;;5034795;28;20176;-65
2022/09/25 09:45:21;;;;;;;8.55;0.60;;;15.00;99.90;;;;;;5029079;28;20045;-65
2022/09/25 09:48:01;;;;;;;1.15;0.50;;;15.00;99.90;;;;;;5033804;28;20488;-65
2022/09/25 09:51:13;;;;;;;3.42;0.57;;;14.70;99.90;;;;;;5034323;28;20041;-65
2022/09/25 09:53:47;;;;;;;2.22;0.65;;;14.50;99.90;;;;;;4931818;29;20084;-65
2022/09/25 09:56:29;;;;;;;3.60;0.85;;;14.30;99.90;;;;;;5014045;28;20072;-65
2022/09/25 09:59:13;;;;;;;1.83;0.55;;;14.20;99.90;;;;;;5034311;28;20099;-65
2022/09/25 10:01:43;;;;;;;0.70;0.40;;;14.30;99.90;;;;;;5027345;28;20045;-65
2022/09/25 10:04:22;;;;;;;1.05;0.50;;;14.30;99.90;;;;;;5035611;28;20052;-65
2022/09/25 10:06:57;;;;;;;2.15;0.40;;;14.20;99.90;;;;;;5034383;28;20053;-65
2022/09/25 10:09:24;;;;;;;2.40;0.70;;;14.20;99.90;;;;;;5035508;28;20113;-65
2022/09/25 10:11:59;;;;;;;3.50;0.95;;;14.40;99.90;;;;;;5033961;28;20041;-65
2022/09/25 10:14:31;;;;;;;4.30;0.68;;;14.60;99.90;;;;;;5035209;28;20136;-65
2022/09/25 10:16:57;;;;;;;1.63;0.40;;;14.70;99.90;;;;;;5034105;28;20079;-65
2022/09/25 10:19:26;;;;;;;2.88;1.15;;;14.80;99.90;;;;;;5034046;28;20491;-65
2022/09/25 10:22:03;;;;;;;2.55;0.52;;;15.00;99.90;;;;;;5034927;28;20045;-65
2022/09/25 10:25:02;;;;;;;3.08;0.77;;;14.90;99.90;;;;;;5021116;28;20042;-65
2022/09/25 10:27:37;;;;;;;3.17;0.63;;;15.10;99.90;;;;;;4991542;28;20085;-65
2022/09/25 10:30:12;;;;;;;2.03;0.75;;;15.40;99.90;;;;;;5017860;28;20041;-65
2022/09/25 10:32:41;;;;;;;2.85;0.77;;;15.50;99.90;;;;;;5015616;28;20034;-65
2022/09/25 10:35:14;;;;;;;4.60;0.68;;;15.40;99.90;;;;;;5024513;28;20061;-65
2022/09/25 10:37:39;;;;;;;2.05;0.80;;;15.40;99.90;;;;;;5032817;28;20037;-65
2022/09/25 10:40:37;;;;;;;5.40;2.35;;;15.50;99.90;;;;;;5034254;28;20044;-65
2022/09/25 10:43:05;;;;;;;2.03;0.38;;;15.60;99.90;;;;;;5028928;28;20483;-65
2022/09/25 10:45:33;;;;;;;4.93;0.75;;;15.70;99.90;;;;;;5032658;28;20045;-65
2022/09/25 10:51:05;;;;;;;2.08;0.50;;;15.70;99.90;;;;;;5032733;28;20045;-65
2022/09/25 10:53:30;;;;;;;5.10;0.75;;;15.80;99.90;;;;;;5033888;28;20115;-65
2022/09/25 10:56:11;;;;;;;4.15;0.88;;;15.60;99.90;;;;;;5034136;28;20089;-65
2022/09/25 10:58:53;;;;;;;4.13;1.27;;;16.00;99.90;;;;;;5032765;28;20061;-65
2022/09/25 11:01:27;;;;;;;2.03;0.63;;;16.00;99.90;;;;;;5034161;28;20033;-65
2022/09/25 11:03:55;;;;;;;3.85;0.77;;;15.90;99.90;;;;;;5027035;28;20041;-65
2022/09/25 11:06:29;;;;;;;4.03;1.15;;;16.00;99.90;;;;;;5033276;28;20503;-65
2022/09/25 11:09:01;;;;;;;6.72;0.77;;;15.70;99.90;;;;;;5034454;28;20090;-65
2022/09/25 11:11:27;;;;;;;4.07;0.80;;;15.80;99.90;;;;;;5033128;28;20096;-65
2022/09/25 11:13:59;;;;;;;3.22;0.73;;;15.80;99.90;;;;;;5033900;28;20531;-65
2022/09/25 11:16:47;;;;;;;3.17;0.50;;;15.90;99.90;;;;;;5034145;28;20050;-65
2022/09/25 11:19:28;;;;;;;2.40;0.52;;;15.90;99.90;;;;;;5021917;28;20042;-65
2022/09/25 11:22:24;;;;;;;3.55;0.77;;;16.00;99.90;;;;;;5032842;28;20041;-65
2022/09/25 11:25:12;;;;;;;7.57;1.10;;;16.00;99.90;;;;;;5032682;28;20053;-65
2022/09/25 11:28:05;;;;;;;1.05;0.80;;;16.00;99.90;;;;;;5022471;28;20064;-65
2022/09/25 11:30:56;;;;;;;5.07;1.13;;;16.00;99.90;;;;;;5032367;28;20053;-65
2022/09/25 11:33:47;;;;;;;2.30;0.60;;;16.30;99.90;;;;;;5034023;28;20041;-65
2022/09/25 11:36:33;;;;;;;2.67;0.57;;;16.30;99.90;;;;;;5023086;28;20404;-65
2022/09/25 11:42:26;;;;;;;2.22;0.50;;;16.10;99.90;;;;;;5033817;28;20042;-65
2022/09/25 11:45:08;;;;;;;3.17;0.70;;;16.10;99.90;;;;;;5013877;28;20069;-65
2022/09/25 11:47:46;;;;;;;2.80;1.35;;;16.10;99.90;;;;;;5030795;28;20041;-65
2022/09/25 11:50:17;;;;;;;1.05;0.50;;;16.30;99.90;;;;;;5033535;28;20087;-65
2022/09/25 11:53:12;;;;;;;5.15;0.93;;;16.40;99.90;;;;;;5032147;28;20048;-65
2022/09/25 11:56:03;;;;;;;6.32;0.95;;;16.10;99.90;;;;;;5032023;28;20506;-65
2022/09/25 11:58:40;;;;;;;1.88;0.70;;;16.20;99.90;;;;;;5032098;28;20037;-65
2022/09/25 12:01:09;;;;;;;2.38;0.50;;;15.80;99.90;;;;;;5033547;28;20033;-65
2022/09/25 12:03:59;;;;;;;3.55;0.70;;;15.60;99.90;;;;;;5031825;28;20072;-65
2022/09/25 12:06:27;;;;;;;3.20;0.70;;;15.90;99.90;;;;;;5032529;28;20046;-65
2022/09/25 12:09:15;;;;;;;2.85;0.40;;;15.60;99.90;;;;;;5033150;28;20041;-65
2022/09/25 12:12:11;;;;;;;9.00;0.90;;;15.20;99.90;;;;;;5031753;28;20052;-65
2022/09/25 12:15:00;;;;;;;3.80;0.70;;;15.20;99.90;;;;;;5032887;28;20045;-65
2022/09/25 12:17:57;;;;;;;6.13;0.77;;;15.20;99.90;;;;;;5031975;28;20037;-65
2022/09/25 12:20:47;;;;;;;4.70;0.70;;;15.10;99.90;;;;;;5031638;28;20037;-65
2022/09/25 12:23:28;;;;;;;5.93;0.70;;;15.10;99.90;;;;;;5033117;28;20038;-65
2022/09/25 12:25:59;;;;;;;1.40;0.60;;;15.10;99.90;;;;;;5019882;28;20041;-65
2022/09/25 12:28:46;;;;;;;4.35;0.90;;;15.10;99.90;;;;;;5032952;28;20068;-65
2022/09/25 12:31:22;;;;;;;2.85;0.85;;;15.30;99.90;;;;;;5033012;28;20037;-65
2022/09/25 12:33:56;;;;;;;3.72;0.73;;;15.30;99.90;;;;;;5031582;28;20496;-65
2022/09/25 12:36:35;;;;;;;3.35;0.80;;;15.40;99.90;;;;;;5031915;28;20045;-65
2022/09/25 12:39:26;;;;;;;2.90;0.68;;;15.40;99.90;;;;;;5033115;28;20040;-65
2022/09/25 12:42:15;;;;;;;1.20;0.55;;;15.60;99.90;;;;;;5027015;28;20081;-65
2022/09/25 12:44:58;;;;;;;3.58;0.60;;;15.40;99.90;;;;;;5031801;28;20110;-65
2022/09/25 12:47:45;;;;;;;2.25;0.60;;;15.60;99.90;;;;;;5031526;28;20045;-65
2022/09/25 12:50:15;;;;;;;3.20;0.65;;;15.70;99.90;;;;;;5032669;28;20041;-65
2022/09/25 12:52:50;;;;;;;1.20;0.50;;;15.80;99.90;;;;;;5031430;28;20042;-65
2022/09/25 12:55:22;;;;;;;2.83;0.60;;;15.70;99.90;;;;;;5032637;28;20129;-65
2022/09/25 12:58:06;;;;;;;3.08;0.60;;;15.80;99.90;;;;;;5031238;28;20041;-65
2022/09/25 13:00:34;;;;;;;3.03;0.77;;;15.70;99.90;;;;;;5014851;28;20522;-65
2022/09/25 13:03:12;;;;;;;2.17;0.60;;;15.90;99.90;;;;;;5032267;28;20038;-65
2022/09/25 13:05:49;;;;;;;2.75;0.70;;;15.80;99.90;;;;;;5032667;28;20156;-65
2022/09/25 13:08:33;;;;;;;4.97;0.65;;;16.00;99.90;;;;;;5032503;28;20553;-65
2022/09/25 13:11:08;;;;;;;2.45;0.50;;;15.90;99.90;;;;;;5032615;28;20384;-65
2022/09/25 13:13:44;;;;;;;2.92;0.85;;;15.90;99.90;;;;;;5031568;28;20041;-65
2022/09/25 13:16:14;;;;;;;1.25;0.60;;;16.00;99.90;;;;;;5032585;28;20103;-65
2022/09/25 13:18:47;;;;;;;2.28;0.57;;;15.80;99.90;;;;;;5031095;28;20476;-65
2022/09/25 13:21:34;;;;;;;2.30;0.65;;;15.80;99.90;;;;;;5031344;28;20037;-65
2022/09/25 13:24:00;;;;;;;4.18;0.65;;;16.00;99.90;;;;;;5017494;28;20117;-65
2022/09/25 13:26:26;;;;;;;2.20;0.50;;;16.00;99.90;;;;;;5032442;28;20113;-65
2022/09/25 13:29:03;;;;;;;4.13;0.70;;;15.90;99.90;;;;;;5030880;28;20045;-65
2022/09/25 13:31:31;;;;;;;1.73;0.63;;;15.90;99.90;;;;;;5027208;28;20038;-65
2022/09/25 13:34:00;;;;;;;3.03;0.60;;;16.00;99.90;;;;;;5018152;28;20037;-65
2022/09/25 13:36:34;;;;;;;3.72;0.60;;;15.80;99.90;;;;;;5024783;28;20053;-65
2022/09/25 13:42:05;;;;;;;4.22;0.85;;;15.60;99.90;;;;;;5025332;28;20073;-64
2022/09/25 13:44:43;;;;;;;2.30;0.60;;;15.60;99.90;;;;;;5031208;28;20060;-65
2022/09/25 13:47:29;;;;;;;4.38;0.60;;;15.60;99.90;;;;;;5025931;28;20073;-64
2022/09/25 13:50:09;;;;;;;3.63;0.77;;;15.50;99.90;;;;;;5031596;28;20091;-64
2022/09/25 13:52:38;;;;;;;5.63;0.57;;;15.60;99.90;;;;;;5032089;28;20045;-64